Wendel, West Virginia
Current Conditions -  °F | °C
As of 9:07 AM on Monday 26 Jan 2015 (Local Time) from KCKB Reporting Station
Light Rain Light Rain  
Wind Chill: 36°   Ceiling: 2100
Heat Index: 36°   Visibility: 2mi
Dew Point: 36°   Wind: 3mph
Humidity: 100%   Direction: 360°N
Pressure: 29.64"   Gusts: NA
Location:  39.2753°N, 80.1249°W
Report Text: KCKB 261407Z 36003KT 2SM -RA BR OVC021 02/02 A2964 RMK AO2 P0000 T00220022
Loading
Personal Weather Stations






























Interactive Weather Map New forecast layout! Learn more

10-Day Weather Forecast

Advertisements
Track Severe Weather on mobile